createdAt,value
2023-04-15T00:01:34.638Z,20.23
2023-04-15T00:04:01.975Z,20.33
2023-04-15T00:06:29.124Z,20.60
2023-04-15T00:08:55.904Z,20.50
2023-04-15T00:11:24.447Z,19.27
2023-04-15T00:13:51.324Z,20.17
2023-04-15T00:16:18.235Z,20.15
2023-04-15T00:18:45.200Z,19.27
2023-04-15T00:21:12.005Z,19.45
2023-04-15T00:23:38.954Z,19.45
2023-04-15T00:26:05.772Z,20.13
2023-04-15T00:28:32.696Z,19.08
2023-04-15T00:30:59.530Z,18.58
2023-04-15T00:33:26.874Z,19.55
2023-04-15T00:35:53.875Z,18.83
2023-04-15T00:38:20.825Z,19.48
2023-04-15T00:40:47.738Z,18.88
2023-04-15T00:43:14.647Z,19.42
2023-04-15T00:45:41.493Z,19.30
2023-04-15T00:48:10.432Z,18.73
2023-04-15T00:50:37.221Z,19.52
2023-04-15T00:53:04.090Z,18.60
2023-04-15T00:55:31.811Z,19.30
2023-04-15T00:57:59.208Z,19.00
2023-04-15T01:00:26.916Z,19.88
2023-04-15T01:02:53.923Z,18.33
2023-04-15T01:05:20.850Z,19.45
2023-04-15T01:07:48.943Z,20.00
2023-04-15T01:10:15.874Z,20.98
2023-04-15T01:12:43.447Z,19.60
2023-04-15T01:15:11.215Z,20.52
2023-04-15T01:17:39.413Z,20.05
2023-04-15T01:20:10.181Z,19.25
2023-04-15T01:22:38.428Z,20.67
2023-04-15T01:25:13.828Z,20.58
2023-04-15T01:27:42.421Z,21.15
2023-04-15T01:30:10.658Z,21.10
2023-04-15T01:32:37.984Z,21.20
2023-04-15T01:35:05.342Z,21.13
2023-04-15T01:37:32.697Z,22.35
2023-04-15T01:39:59.788Z,22.33
2023-04-15T01:42:26.612Z,21.67
2023-04-15T01:44:53.842Z,21.25
2023-04-15T01:47:20.887Z,21.77
2023-04-15T01:49:48.007Z,21.20
2023-04-15T01:52:14.805Z,21.75
2023-04-15T01:54:41.892Z,20.30
2023-04-15T01:57:08.653Z,20.80
2023-04-15T01:59:36.259Z,21.20
2023-04-15T02:02:03.235Z,20.23
2023-04-15T02:04:30.352Z,20.13
2023-04-15T02:07:00.816Z,19.42
2023-04-15T02:09:28.076Z,21.83
2023-04-15T02:11:54.988Z,21.45
2023-04-15T02:14:22.221Z,20.55
2023-04-15T02:16:49.235Z,20.33
2023-04-15T02:19:16.454Z,18.30
2023-04-15T02:21:43.359Z,19.33
2023-04-15T02:24:10.480Z,18.83
2023-04-15T02:26:37.460Z,18.10
2023-04-15T02:29:04.396Z,18.20
2023-04-15T02:31:34.197Z,18.02
2023-04-15T02:34:03.136Z,17.80
2023-04-15T02:36:32.003Z,17.35
2023-04-15T02:38:59.033Z,17.10
2023-04-15T02:41:28.511Z,18.17
2023-04-15T02:43:55.929Z,17.60
2023-04-15T02:46:23.222Z,17.75
2023-04-15T02:48:51.052Z,17.58
2023-04-15T02:51:20.418Z,17.08
2023-04-15T02:53:48.663Z,17.45
2023-04-15T02:56:16.029Z,17.33
2023-04-15T02:58:45.201Z,16.95
2023-04-15T03:01:12.266Z,16.13
2023-04-15T03:03:40.161Z,16.98
2023-04-15T03:06:07.069Z,16.85
2023-04-15T03:08:34.376Z,16.30
2023-04-15T03:11:02.686Z,16.30
2023-04-15T03:13:29.903Z,17.13
2023-04-15T03:15:58.505Z,16.63
2023-04-15T03:18:25.449Z,16.67
2023-04-15T03:20:52.302Z,16.52
2023-04-15T03:23:19.198Z,16.30
2023-04-15T03:25:46.274Z,16.98
2023-04-15T03:28:14.708Z,17.48
2023-04-15T03:30:41.875Z,16.70
2023-04-15T03:33:09.492Z,17.30
2023-04-15T03:35:36.991Z,17.85
2023-04-15T03:38:03.859Z,17.42
2023-04-15T03:40:30.809Z,16.65
2023-04-15T03:42:57.703Z,17.38
2023-04-15T03:45:24.530Z,17.40
2023-04-15T03:47:51.728Z,17.20
2023-04-15T03:50:18.649Z,16.30
2023-04-15T03:52:45.859Z,16.58
2023-04-15T03:55:12.787Z,16.33
2023-04-15T03:57:39.946Z,16.85
2023-04-15T04:00:08.061Z,17.10
2023-04-15T04:05:06.448Z,15.93
2023-04-15T04:07:33.272Z,17.05
2023-04-15T04:10:00.126Z,17.42
2023-04-15T04:12:27.016Z,17.75
2023-04-15T04:14:53.809Z,18.00
2023-04-15T04:17:20.690Z,16.75
2023-04-15T04:19:47.529Z,17.60
2023-04-15T04:22:14.430Z,18.27
2023-04-15T04:24:41.330Z,16.77
2023-04-15T04:27:08.254Z,17.95
2023-04-15T04:29:35.128Z,16.92
2023-04-15T04:32:02.063Z,17.20
2023-04-15T04:34:28.886Z,17.83
2023-04-15T04:36:55.807Z,18.67
2023-04-15T04:39:22.686Z,18.33
2023-04-15T04:41:50.211Z,19.27
2023-04-15T04:44:17.062Z,19.30
2023-04-15T04:46:43.995Z,20.05
2023-04-15T04:49:10.896Z,18.60
2023-04-15T04:51:37.819Z,19.23
2023-04-15T04:54:04.614Z,19.90
2023-04-15T04:56:31.481Z,19.63
2023-04-15T04:58:58.355Z,20.02
2023-04-15T05:01:26.765Z,18.67
2023-04-15T05:03:53.821Z,19.02
2023-04-15T05:06:20.895Z,19.23
2023-04-15T05:08:48.410Z,18.83
2023-04-15T05:11:15.247Z,19.92
2023-04-15T05:13:42.222Z,20.40
2023-04-15T05:16:09.603Z,20.13
2023-04-15T05:18:36.959Z,20.80
2023-04-15T05:21:03.961Z,19.55
2023-04-15T05:23:31.133Z,19.50
2023-04-15T05:25:58.044Z,19.38
2023-04-15T05:28:24.942Z,19.20
2023-04-15T05:30:51.882Z,20.13
2023-04-15T05:33:19.200Z,20.55
2023-04-15T05:35:46.362Z,19.80
2023-04-15T05:38:13.295Z,19.73
2023-04-15T05:40:40.121Z,20.25
2023-04-15T05:43:07.063Z,20.50
2023-04-15T05:45:33.829Z,19.05
2023-04-15T05:48:00.771Z,19.67
2023-04-15T05:50:27.615Z,19.77
2023-04-15T05:52:54.569Z,18.58
2023-04-15T05:55:22.247Z,19.52
2023-04-15T05:57:49.107Z,19.52
2023-04-15T06:00:16.532Z,20.27
2023-04-15T06:02:43.615Z,18.90
2023-04-15T06:05:11.942Z,19.05
2023-04-15T06:07:38.949Z,18.73
2023-04-15T06:10:06.535Z,19.33
2023-04-15T06:12:33.517Z,18.15
2023-04-15T06:15:00.586Z,19.33
2023-04-15T06:17:27.595Z,19.42
2023-04-15T06:19:55.898Z,18.33
2023-04-15T06:22:23.591Z,18.42
2023-04-15T06:24:51.623Z,19.63
2023-04-15T06:27:18.887Z,18.90
2023-04-15T06:29:45.719Z,17.70
2023-04-15T06:32:13.239Z,18.25
2023-04-15T06:34:40.101Z,17.65
2023-04-15T06:37:07.181Z,18.15
2023-04-15T06:39:34.018Z,17.73
2023-04-15T06:42:01.750Z,18.10
2023-04-15T06:44:30.092Z,18.25
2023-04-15T06:46:58.089Z,17.98
2023-04-15T06:49:24.882Z,17.10
2023-04-15T06:51:51.763Z,17.13
2023-04-15T06:54:18.908Z,18.42
2023-04-15T06:56:45.812Z,18.45
2023-04-15T06:59:13.064Z,17.30
2023-04-15T07:01:42.063Z,17.80
2023-04-15T07:04:09.007Z,16.60
2023-04-15T07:06:35.864Z,15.90
2023-04-15T07:09:03.679Z,16.02
2023-04-15T07:11:31.071Z,16.52
2023-04-15T07:13:58.698Z,16.80
2023-04-15T07:16:27.878Z,15.27
2023-04-15T07:18:56.240Z,15.25
2023-04-15T07:21:24.063Z,15.40
2023-04-15T07:23:51.150Z,15.15
2023-04-15T07:26:18.104Z,14.85
2023-04-15T07:28:46.411Z,15.65
2023-04-15T07:31:13.980Z,14.65
2023-04-15T07:33:40.758Z,15.73
2023-04-15T07:36:08.011Z,13.35
2023-04-15T07:38:34.949Z,14.82
2023-04-15T07:41:01.756Z,14.88
2023-04-15T07:43:29.884Z,15.05
2023-04-15T07:45:56.709Z,14.45
2023-04-15T07:48:23.554Z,15.10
2023-04-15T07:50:50.411Z,13.93
2023-04-15T07:53:17.283Z,13.95
2023-04-15T07:55:44.099Z,14.43
2023-04-15T07:58:11.027Z,12.70
2023-04-15T08:00:38.617Z,13.55
2023-04-15T08:03:06.105Z,14.02
2023-04-15T08:05:33.296Z,12.02
2023-04-15T08:08:00.329Z,12.35
2023-04-15T08:10:27.418Z,13.02
2023-04-15T08:12:55.094Z,13.57
2023-04-15T08:15:22.382Z,12.90
2023-04-15T08:17:49.297Z,12.57
2023-04-15T08:20:16.248Z,12.48
2023-04-15T08:22:43.167Z,12.90
2023-04-15T08:25:10.527Z,13.65
2023-04-15T08:27:45.791Z,12.15
2023-04-15T08:30:13.166Z,12.65
2023-04-15T08:32:40.255Z,12.63
2023-04-15T08:35:07.964Z,12.70
2023-04-15T08:37:34.974Z,12.15
2023-04-15T08:40:01.768Z,11.48
2023-04-15T08:42:35.288Z,12.05
2023-04-15T08:45:04.792Z,11.82
2023-04-15T08:47:32.212Z,12.73
2023-04-15T08:49:59.690Z,12.95
2023-04-15T08:52:27.112Z,12.38
2023-04-15T08:54:59.042Z,12.90
2023-04-15T08:57:30.163Z,13.27
2023-04-15T08:59:57.832Z,12.18
2023-04-15T09:02:28.787Z,13.00
2023-04-15T09:04:56.831Z,11.90
2023-04-15T09:07:23.681Z,12.05
2023-04-15T09:09:51.506Z,10.40
2023-04-15T09:12:18.399Z,11.35
2023-04-15T09:14:47.358Z,11.80
2023-04-15T09:17:19.185Z,10.63
2023-04-15T09:22:13.870Z,10.80
2023-04-15T09:24:42.339Z,11.40
2023-04-15T09:27:09.406Z,11.55
2023-04-15T09:29:37.302Z,11.63
2023-04-15T09:32:16.508Z,12.38
2023-04-15T09:34:43.756Z,12.13
2023-04-15T09:37:11.366Z,10.85
2023-04-15T09:39:50.134Z,11.43
2023-04-15T09:42:24.059Z,11.18
2023-04-15T09:44:52.775Z,11.68
2023-04-15T09:47:30.225Z,12.02
2023-04-15T09:49:58.303Z,12.60
2023-04-15T09:52:25.256Z,11.85
2023-04-15T09:54:55.111Z,12.80
2023-04-15T09:57:22.172Z,12.35
2023-04-15T09:59:49.072Z,12.55
2023-04-15T10:02:16.609Z,11.48
2023-04-15T10:04:43.582Z,12.25
2023-04-15T10:07:12.726Z,11.88
2023-04-15T10:09:39.982Z,11.23
2023-04-15T10:12:07.436Z,12.00
2023-04-15T10:14:38.911Z,12.45
2023-04-15T10:17:06.150Z,12.15
2023-04-15T10:19:34.303Z,13.27
2023-04-15T10:22:01.328Z,13.13
2023-04-15T10:24:28.564Z,13.55
2023-04-15T10:26:55.705Z,12.75
2023-04-15T10:29:24.332Z,12.45
2023-04-15T10:31:51.816Z,12.40
2023-04-15T10:34:18.802Z,12.93
2023-04-15T10:36:47.132Z,11.93
2023-04-15T10:39:42.170Z,12.30
2023-04-15T10:42:14.089Z,12.35
2023-04-15T10:44:45.942Z,12.52
2023-04-15T10:49:45.779Z,11.80
2023-04-15T10:52:12.963Z,11.35
2023-04-15T10:54:39.933Z,12.25
2023-04-15T10:57:09.700Z,11.98
2023-04-15T10:59:38.684Z,10.65
2023-04-15T11:02:07.514Z,11.05
2023-04-15T11:04:57.952Z,11.20
2023-04-15T11:07:54.837Z,11.18
2023-04-15T11:10:57.180Z,10.43
2023-04-15T11:15:56.863Z,10.18
2023-04-15T11:18:30.669Z,10.20
2023-04-15T11:21:01.263Z,9.45
2023-04-15T11:23:31.549Z,10.10
2023-04-15T11:26:00.021Z,10.35
2023-04-15T11:28:28.486Z,10.15
2023-04-15T11:30:56.125Z,10.10
2023-04-15T11:33:24.213Z,8.82
2023-04-15T11:35:53.677Z,9.38
2023-04-15T11:38:20.529Z,9.32
2023-04-15T11:40:47.520Z,9.57
2023-04-15T11:43:16.750Z,10.10
2023-04-15T11:45:55.970Z,9.35
2023-04-15T11:48:25.617Z,10.02
2023-04-15T11:51:00.436Z,10.65
2023-04-15T11:53:47.880Z,10.20
2023-04-15T11:56:25.649Z,10.55
2023-04-15T11:58:57.067Z,11.20
2023-04-15T12:01:46.604Z,11.35
2023-04-15T12:04:15.431Z,11.40
2023-04-15T12:06:42.362Z,10.55
2023-04-15T12:09:17.331Z,9.95
2023-04-15T12:11:49.723Z,10.27
2023-04-15T12:14:35.234Z,9.63
2023-04-15T12:17:04.883Z,9.25
2023-04-15T12:19:40.228Z,9.50
2023-04-15T12:22:12.402Z,9.85
2023-04-15T12:24:39.799Z,9.98
2023-04-15T12:27:08.190Z,10.77
2023-04-15T12:29:36.947Z,10.85
2023-04-15T12:32:08.668Z,10.25
2023-04-15T12:34:43.032Z,10.30
2023-04-15T12:37:11.946Z,10.07
2023-04-15T12:39:41.272Z,9.45
2023-04-15T12:42:09.050Z,10.07
2023-04-15T12:44:37.277Z,9.93
2023-04-15T12:47:04.695Z,9.60
2023-04-15T12:49:32.919Z,10.32
2023-04-15T12:52:01.121Z,8.50
2023-04-15T12:54:29.360Z,9.35
2023-04-15T12:56:56.728Z,9.57
2023-04-15T12:59:26.700Z,9.85
2023-04-15T13:01:54.406Z,9.85
2023-04-15T13:04:22.328Z,9.45
2023-04-15T13:06:49.856Z,9.32
2023-04-15T13:09:16.943Z,11.13
2023-04-15T13:11:43.997Z,9.65
2023-04-15T13:14:14.073Z,10.40
2023-04-15T13:16:41.584Z,10.18
2023-04-15T13:19:08.656Z,10.15
2023-04-15T13:21:36.435Z,9.38
2023-04-15T13:24:04.526Z,9.80
2023-04-15T13:26:32.150Z,8.88
2023-04-15T13:28:59.537Z,10.10
2023-04-15T13:31:27.324Z,10.52
2023-04-15T13:33:54.524Z,9.15
2023-04-15T13:36:21.496Z,9.15
2023-04-15T13:38:51.012Z,9.80
2023-04-15T13:41:18.659Z,10.70
2023-04-15T13:43:45.701Z,9.82
2023-04-15T13:46:12.849Z,9.82
2023-04-15T13:48:39.881Z,11.27
2023-04-15T13:51:06.792Z,11.57
2023-04-15T13:53:39.145Z,10.77
2023-04-15T13:56:07.972Z,9.73
2023-04-15T13:58:34.937Z,7.97
2023-04-15T14:01:04.702Z,9.75
2023-04-15T14:03:33.358Z,10.73
2023-04-15T14:06:00.389Z,10.10
2023-04-15T14:08:27.323Z,10.00
2023-04-15T14:10:54.240Z,9.38
2023-04-15T14:13:21.104Z,9.80
2023-04-15T14:15:47.975Z,10.35
2023-04-15T14:18:14.971Z,9.95
2023-04-15T14:20:42.013Z,11.40
2023-04-15T14:23:08.861Z,10.90
2023-04-15T14:25:35.779Z,10.65
2023-04-15T14:28:03.559Z,11.07
2023-04-15T14:30:30.663Z,10.27
2023-04-15T14:32:57.680Z,11.43
2023-04-15T14:35:26.807Z,11.25
2023-04-15T14:37:54.568Z,11.43
2023-04-15T14:40:22.556Z,11.23
2023-04-15T14:42:49.577Z,11.23
2023-04-15T14:45:16.681Z,10.57
2023-04-15T14:47:44.049Z,10.38
2023-04-15T14:50:11.102Z,11.00
2023-04-15T14:52:41.045Z,11.75
2023-04-15T14:55:10.443Z,11.30
2023-04-15T14:57:38.284Z,12.25
2023-04-15T15:00:07.117Z,11.68
2023-04-15T15:02:39.125Z,11.13
2023-04-15T15:05:08.819Z,10.50
2023-04-15T15:07:37.383Z,10.82
2023-04-15T15:10:05.386Z,10.40
2023-04-15T15:12:33.016Z,10.65
2023-04-15T15:15:01.522Z,10.02
2023-04-15T15:17:28.692Z,10.82
2023-04-15T15:19:55.554Z,10.20
2023-04-15T15:22:22.368Z,10.75
2023-04-15T15:24:49.365Z,10.43
2023-04-15T15:27:16.241Z,10.43
2023-04-15T15:29:43.103Z,11.00
2023-04-15T15:32:09.925Z,11.35
2023-04-15T15:34:36.784Z,10.75
2023-04-15T15:37:03.595Z,10.85
2023-04-15T15:39:30.512Z,9.90
2023-04-15T15:41:57.439Z,10.77
2023-04-15T15:44:24.288Z,10.93
2023-04-15T15:46:51.299Z,10.95
2023-04-15T15:49:18.274Z,11.27
2023-04-15T15:51:46.010Z,11.27
2023-04-15T15:54:13.193Z,12.18
2023-04-15T15:56:40.174Z,12.80
2023-04-15T15:59:07.088Z,12.75
2023-04-15T16:01:34.127Z,11.18
2023-04-15T16:04:01.430Z,11.18
2023-04-15T16:06:28.839Z,12.25
2023-04-15T16:08:55.799Z,11.43
2023-04-15T16:11:23.430Z,11.95
2023-04-15T16:13:50.331Z,10.68
2023-04-15T16:16:17.211Z,10.68
2023-04-15T16:18:44.080Z,9.55
2023-04-15T16:21:10.935Z,9.45
2023-04-15T16:23:38.397Z,9.07
2023-04-15T16:26:05.499Z,8.52
2023-04-15T16:28:32.457Z,10.02
2023-04-15T16:30:59.993Z,10.80
2023-04-15T16:33:27.007Z,19.35
2023-04-15T16:35:53.866Z,10.20
2023-04-15T16:38:20.945Z,10.13
2023-04-15T16:40:47.861Z,9.30
2023-04-15T16:43:14.711Z,11.30
2023-04-15T16:45:41.704Z,10.95
2023-04-15T16:48:08.569Z,10.73
2023-04-15T16:50:37.213Z,12.65
2023-04-15T16:53:04.060Z,12.80
2023-04-15T16:55:57.264Z,13.93
2023-04-15T16:58:25.444Z,23.33
2023-04-15T17:00:52.593Z,13.32
2023-04-15T17:03:19.716Z,13.77
2023-04-15T17:05:46.569Z,16.60
2023-04-15T17:08:13.698Z,12.85
2023-04-15T17:10:40.546Z,15.75
2023-04-15T17:13:07.418Z,16.58
2023-04-15T17:15:34.652Z,10.48
2023-04-15T17:18:02.253Z,9.70
2023-04-15T17:20:30.135Z,13.93
2023-04-15T17:22:57.740Z,15.07
2023-04-15T17:25:24.628Z,15.45
2023-04-15T17:27:51.452Z,15.77
2023-04-15T17:30:19.268Z,16.58
2023-04-15T17:32:46.331Z,17.60
2023-04-15T17:35:13.483Z,14.00
2023-04-15T17:37:42.008Z,13.10
2023-04-15T17:40:11.570Z,12.68
2023-04-15T17:42:39.298Z,12.18
2023-04-15T17:45:08.792Z,12.82
2023-04-15T17:47:49.858Z,13.10
2023-04-15T17:50:18.807Z,13.35
2023-04-15T17:52:48.393Z,13.18
2023-04-15T17:55:16.325Z,13.52
2023-04-15T17:57:48.478Z,13.80
2023-04-15T18:00:19.079Z,14.32
2023-04-15T18:02:49.761Z,15.82
2023-04-15T18:05:22.581Z,12.57
2023-04-15T18:07:53.675Z,13.70
2023-04-15T18:10:22.282Z,12.43
2023-04-15T18:12:56.967Z,12.27
2023-04-15T18:15:26.581Z,13.48
2023-04-15T18:17:55.365Z,14.02
2023-04-15T18:20:22.285Z,12.85
2023-04-15T18:22:49.223Z,11.23
2023-04-15T18:25:16.040Z,7.45
2023-04-15T18:27:43.032Z,6.78
2023-04-15T18:30:11.170Z,6.28
2023-04-15T18:32:38.586Z,4.85
2023-04-15T18:35:06.080Z,4.80
2023-04-15T18:37:33.189Z,5.10
2023-04-15T18:40:00.064Z,4.90
2023-04-15T18:42:27.065Z,4.68
2023-04-15T18:44:54.606Z,4.00
2023-04-15T18:47:21.481Z,4.15
2023-04-15T18:49:48.475Z,3.90
2023-04-15T18:52:15.266Z,4.03
2023-04-15T18:54:42.166Z,4.47
2023-04-15T18:57:09.008Z,4.43
2023-04-15T18:59:36.316Z,4.07
2023-04-15T19:02:06.568Z,4.70
2023-04-15T19:04:33.824Z,4.63
2023-04-15T19:07:01.906Z,4.70
2023-04-15T19:09:29.411Z,4.90
2023-04-15T19:11:56.961Z,5.20
2023-04-15T19:14:23.979Z,5.60
2023-04-15T19:16:53.572Z,4.65
2023-04-15T19:19:24.672Z,5.38
2023-04-15T19:21:54.790Z,4.95
2023-04-15T19:24:24.455Z,5.10
2023-04-15T19:26:53.638Z,5.28
2023-04-15T19:29:24.578Z,4.85
2023-04-15T19:31:56.260Z,5.35
2023-04-15T19:34:29.648Z,5.32
2023-04-15T19:37:01.459Z,5.80
2023-04-15T19:39:35.764Z,5.63
2023-04-15T19:42:04.647Z,5.63
2023-04-15T19:44:33.662Z,6.38
2023-04-15T19:47:08.658Z,7.15
2023-04-15T19:49:42.478Z,8.05
2023-04-15T19:52:16.188Z,7.82
2023-04-15T19:54:47.112Z,7.63
2023-04-15T19:57:16.932Z,5.95
2023-04-15T19:59:46.415Z,6.93
2023-04-15T20:02:17.903Z,6.97
2023-04-15T20:04:47.690Z,6.80
2023-04-15T20:07:15.125Z,7.07
2023-04-15T20:09:43.929Z,7.20
2023-04-15T20:12:50.054Z,6.53
2023-04-15T20:14:57.696Z,7.95
2023-04-15T20:17:24.626Z,8.27
2023-04-15T20:19:51.641Z,8.45
2023-04-15T20:22:18.477Z,8.93
2023-04-15T20:24:45.557Z,9.25
2023-04-15T20:27:12.472Z,8.90
2023-04-15T20:29:39.431Z,8.55
2023-04-15T20:32:06.915Z,8.73
2023-04-15T20:34:34.117Z,8.80
2023-04-15T20:37:00.944Z,8.55
2023-04-15T20:39:27.746Z,8.55
2023-04-15T20:41:54.644Z,8.55
2023-04-15T20:44:21.635Z,9.38
2023-04-15T20:46:48.618Z,9.68
2023-04-15T20:49:15.471Z,8.52
2023-04-15T20:51:42.310Z,8.38
2023-04-15T20:54:09.140Z,8.45
2023-04-15T20:56:35.972Z,8.68
2023-04-15T20:59:03.099Z,8.35
2023-04-15T21:01:30.168Z,7.63
2023-04-15T21:03:58.534Z,8.60
2023-04-15T21:06:27.203Z,8.52
2023-04-15T21:08:54.041Z,7.70
2023-04-15T21:11:38.786Z,7.47
2023-04-15T21:14:11.014Z,6.40
2023-04-15T21:16:37.896Z,7.03
2023-04-15T21:19:05.171Z,8.05
2023-04-15T21:21:32.348Z,7.75
2023-04-15T21:23:59.525Z,8.18
2023-04-15T21:26:26.482Z,8.32
2023-04-15T21:28:53.356Z,8.18
2023-04-15T21:31:20.878Z,8.27
2023-04-15T21:33:47.780Z,8.35
2023-04-15T21:36:14.825Z,8.40
2023-04-15T21:38:41.620Z,8.27
2023-04-15T21:41:09.841Z,8.43
2023-04-15T21:43:37.267Z,8.63
2023-04-15T21:46:21.226Z,8.20
2023-04-15T21:48:51.612Z,8.57
2023-04-15T21:51:18.412Z,8.43
2023-04-15T21:53:45.212Z,8.18
2023-04-15T21:56:12.099Z,8.70
2023-04-15T21:58:38.928Z,8.70
2023-04-15T22:01:06.093Z,8.40
2023-04-15T22:03:34.839Z,8.10
2023-04-15T22:06:03.188Z,8.73
2023-04-15T22:08:41.258Z,9.02
2023-04-15T22:11:28.769Z,8.70
2023-04-15T22:13:57.601Z,8.88
2023-04-15T22:16:25.877Z,9.82
2023-04-15T22:18:53.042Z,11.10
2023-04-15T22:21:19.890Z,11.07
2023-04-15T22:23:48.480Z,10.88
2023-04-15T22:26:15.695Z,11.35
2023-04-15T22:28:42.648Z,11.43
2023-04-15T22:31:09.593Z,10.68
2023-04-15T22:33:36.599Z,11.00
2023-04-15T22:36:03.569Z,9.25
2023-04-15T22:38:30.579Z,8.85
2023-04-15T22:40:58.520Z,9.25
2023-04-15T22:43:26.160Z,9.73
2023-04-15T22:45:55.028Z,9.52
2023-04-15T22:48:22.322Z,10.05
2023-04-15T22:50:50.147Z,10.82
2023-04-15T22:53:18.278Z,10.02
2023-04-15T22:55:46.849Z,10.77
2023-04-15T22:58:14.186Z,10.55
2023-04-15T23:00:41.171Z,10.43
2023-04-15T23:03:08.300Z,10.95
2023-04-15T23:05:35.509Z,11.88
2023-04-15T23:08:02.540Z,11.63
2023-04-15T23:10:30.071Z,12.68
2023-04-15T23:12:57.129Z,12.90
2023-04-15T23:15:24.016Z,14.50
2023-04-15T23:17:51.127Z,14.40
2023-04-15T23:20:18.114Z,14.43
2023-04-15T23:22:45.429Z,15.23
2023-04-15T23:25:12.331Z,14.82
2023-04-15T23:27:39.273Z,13.88
2023-04-15T23:30:07.082Z,12.88
2023-04-15T23:32:33.963Z,14.10
2023-04-15T23:35:01.068Z,12.93
2023-04-15T23:37:30.842Z,13.02
2023-04-15T23:39:57.815Z,13.80
2023-04-15T23:42:24.770Z,13.30
2023-04-15T23:44:51.740Z,12.48
2023-04-15T23:47:18.585Z,11.20
2023-04-15T23:49:45.560Z,11.75
2023-04-15T23:52:12.462Z,12.43
2023-04-15T23:54:40.047Z,12.15
2023-04-15T23:57:06.831Z,12.48
2023-04-15T23:59:33.808Z,11.50
